Aérodrome :







RETROUVEZ-NOUS SUR...

 
LOGIN :

S'inscrire | Disclaimer

   EN    FR    IT 

 









Légende :    VFR   VFR Marginal   IFR   IFR Intensif   IFR Très Intensif
Visi : 
Plafond : 
>= 8 km
>= 3000ft
5 à 8 km
1000 à 3000 ft
1500m à 5 km
500 à 1000 ft
800 à 1500m
200 à 500 ft
< 800m
< 200 ft
Symboles :   Orages  Brouillard  Fortes neiges  Fortes précipitations  Vent > 20 kt






- Altitude de l'aérodrome : 9 ft


KPVC - Provincetown Municipal

DERNIER METAR :
  • 262256Z AUTO 28010KT 10SM FEW043 06/01 A2969 RMK AO2 SLP052 T00560011 PNO $

METARs EXPIRÉS :
  • 262156Z AUTO 27009KT 10SM SCT055 06/02 A2967 RMK AO2 SLP046 T00610017 PNO $
  • 262056Z AUTO 26011KT 10SM SCT055 07/01 A2965 RMK AO2 SLP039 6//// T00670011 55002 PNO $

TAF N/A



MET'MAP, la Météo Aéronautique d'un coup d'oeil ! - Copyright ORBIFLY Décembre 2007 - Disclaimer

ORBIFLY MET'MAP TEAM :

Programmation & Développement : Alexandra Zaïnal
Sur une idée originale de : Baudouin d'Aumeries
Assistance à la programmation : Marc-Olivier Méhu
Soutien technique & logistique : Manuel Goepfert

Contact : metmap@orbifly.com




SOURCES & CREDITS :

   NOAA